sensor_id;sensor_type;location;lat;lon;timestamp;pressure;altitude;pressure_sealevel;temperature;humidity
55418;BME280;41287;47.554;7.844;2023-05-09T00:00:36;98287.97;;;19.09;58.59
55418;BME280;41287;47.554;7.844;2023-05-09T00:03:02;98291.47;;;19.09;58.65
55418;BME280;41287;47.554;7.844;2023-05-09T00:05:30;98288.78;;;19.09;58.48
55418;BME280;41287;47.554;7.844;2023-05-09T00:07:55;98290.69;;;19.09;58.51
55418;BME280;41287;47.554;7.844;2023-05-09T00:10:21;98279.81;;;19.09;58.46
55418;BME280;41287;47.554;7.844;2023-05-09T00:12:46;98279.81;;;19.09;58.53
55418;BME280;41287;47.554;7.844;2023-05-09T00:15:13;98289.88;;;19.08;58.74
55418;BME280;41287;47.554;7.844;2023-05-09T00:17:39;98278.69;;;19.10;58.62
55418;BME280;41287;47.554;7.844;2023-05-09T00:20:07;98277.91;;;19.09;58.65
55418;BME280;41287;47.554;7.844;2023-05-09T00:22:35;98269.75;;;19.09;58.67
55418;BME280;41287;47.554;7.844;2023-05-09T00:25:01;98268.16;;;19.08;58.66
55418;BME280;41287;47.554;7.844;2023-05-09T00:27:26;98258.09;;;19.09;58.45
55418;BME280;41287;47.554;7.844;2023-05-09T00:29:54;98251.06;;;19.08;58.71
55418;BME280;41287;47.554;7.844;2023-05-09T00:32:22;98253.78;;;19.08;58.56
55418;BME280;41287;47.554;7.844;2023-05-09T00:34:50;98249.16;;;19.08;58.66
55418;BME280;41287;47.554;7.844;2023-05-09T00:37:15;98242.59;;;19.09;58.52
55418;BME280;41287;47.554;7.844;2023-05-09T00:39:43;98247.22;;;19.09;58.68
55418;BME280;41287;47.554;7.844;2023-05-09T00:42:09;98237.16;;;19.09;58.50
55418;BME280;41287;47.554;7.844;2023-05-09T00:44:34;98238.75;;;19.10;58.71
55418;BME280;41287;47.554;7.844;2023-05-09T00:46:59;98239.88;;;19.09;58.51
55418;BME280;41287;47.554;7.844;2023-05-09T00:49:25;98230.94;;;19.09;58.62
55418;BME280;41287;47.554;7.844;2023-05-09T00:51:53;98236.38;;;19.09;58.52
55418;BME280;41287;47.554;7.844;2023-05-09T00:54:18;98232.06;;;19.08;58.68
55418;BME280;41287;47.554;7.844;2023-05-09T00:56:44;98229.34;;;19.08;58.66
55418;BME280;41287;47.554;7.844;2023-05-09T00:59:09;98230.13;;;19.08;58.66
55418;BME280;41287;47.554;7.844;2023-05-09T01:01:35;98222.00;;;19.08;58.64
55418;BME280;41287;47.554;7.844;2023-05-09T01:04:02;98223.59;;;19.09;58.71
55418;BME280;41287;47.554;7.844;2023-05-09T01:07:05;98220.06;;;19.09;58.55
55418;BME280;41287;47.554;7.844;2023-05-09T01:09:49;98208.75;;;19.07;58.44
55418;BME280;41287;47.554;7.844;2023-05-09T01:12:28;98215.44;;;19.09;58.67
55418;BME280;41287;47.554;7.844;2023-05-09T01:15:03;98213.84;;;19.08;58.66
55418;BME280;41287;47.554;7.844;2023-05-09T01:17:57;98217.69;;;19.07;58.53
55418;BME280;41287;47.554;7.844;2023-05-09T01:20:29;98214.50;;;19.05;58.56
55418;BME280;41287;47.554;7.844;2023-05-09T01:25:54;98215.44;;;19.09;58.30
55418;BME280;41287;47.554;7.844;2023-05-09T01:31:29;98202.97;;;19.08;58.56
55418;BME280;41287;47.554;7.844;2023-05-09T01:33:58;98196.75;;;19.08;58.58
55418;BME280;41287;47.554;7.844;2023-05-09T01:36:29;98206.03;;;19.07;58.81
55418;BME280;41287;47.554;7.844;2023-05-09T01:38:58;98205.22;;;19.06;58.62
55418;BME280;41287;47.554;7.844;2023-05-09T01:41:24;98208.75;;;19.07;58.77
55418;BME280;41287;47.554;7.844;2023-05-09T01:43:54;98216.88;;;19.07;58.67
55418;BME280;41287;47.554;7.844;2023-05-09T01:46:21;98206.81;;;19.07;58.59
55418;BME280;41287;47.554;7.844;2023-05-09T01:48:49;98204.91;;;19.08;58.57
55418;BME280;41287;47.554;7.844;2023-05-09T01:51:17;98193.25;;;19.07;58.59
55418;BME280;41287;47.554;7.844;2023-05-09T01:53:45;98201.06;;;19.09;58.57
55418;BME280;41287;47.554;7.844;2023-05-09T01:56:12;98202.19;;;19.08;58.65
55418;BME280;41287;47.554;7.844;2023-05-09T01:58:39;98189.41;;;19.08;58.65
55418;BME280;41287;47.554;7.844;2023-05-09T02:01:05;98193.25;;;19.07;58.79
55418;BME280;41287;47.554;7.844;2023-05-09T02:03:31;98192.13;;;19.08;58.72
55418;BME280;41287;47.554;7.844;2023-05-09T02:05:58;98194.03;;;19.08;58.73
55418;BME280;41287;47.554;7.844;2023-05-09T02:08:25;98192.13;;;19.08;58.65
55418;BME280;41287;47.554;7.844;2023-05-09T02:10:50;98191.31;;;19.08;58.68
55418;BME280;41287;47.554;7.844;2023-05-09T02:13:17;98186.69;;;19.08;58.65
55418;BME280;41287;47.554;7.844;2023-05-09T02:15:42;98184.75;;;19.09;58.67
55418;BME280;41287;47.554;7.844;2023-05-09T02:18:08;98175.81;;;19.08;58.67
55418;BME280;41287;47.554;7.844;2023-05-09T02:20:33;98178.53;;;19.08;58.73
55418;BME280;41287;47.554;7.844;2023-05-09T02:23:00;98172.31;;;19.08;58.53
55418;BME280;41287;47.554;7.844;2023-05-09T02:25:25;98177.75;;;19.08;58.58
55418;BME280;41287;47.554;7.844;2023-05-09T02:27:52;98182.06;;;19.09;58.71
55418;BME280;41287;47.554;7.844;2023-05-09T02:30:22;98170.38;;;19.08;58.77
55418;BME280;41287;47.554;7.844;2023-05-09T02:32:51;98171.97;;;19.09;58.72
55418;BME280;41287;47.554;7.844;2023-05-09T02:35:18;98170.06;;;19.10;58.62
55418;BME280;41287;47.554;7.844;2023-05-09T02:37:44;98170.38;;;19.08;58.78
55418;BME280;41287;47.554;7.844;2023-05-09T02:40:10;98175.50;;;19.10;58.88
55418;BME280;41287;47.554;7.844;2023-05-09T02:42:36;98179.34;;;19.09;58.73
55418;BME280;41287;47.554;7.844;2023-05-09T02:45:03;98171.19;;;19.09;58.85
55418;BME280;41287;47.554;7.844;2023-05-09T02:47:31;98175.81;;;19.08;58.83
55418;BME280;41287;47.554;7.844;2023-05-09T02:49:58;98166.53;;;19.09;58.71
55418;BME280;41287;47.554;7.844;2023-05-09T02:52:23;98170.06;;;19.10;58.80
55418;BME280;41287;47.554;7.844;2023-05-09T02:54:50;98177.41;;;19.09;58.79
55418;BME280;41287;47.554;7.844;2023-05-09T02:57:16;98175.50;;;19.10;58.81
55418;BME280;41287;47.554;7.844;2023-05-09T02:59:41;98173.91;;;19.09;58.73
55418;BME280;41287;47.554;7.844;2023-05-09T03:02:06;98167.34;;;19.10;58.86
55418;BME280;41287;47.554;7.844;2023-05-09T03:04:32;98166.88;;;19.08;58.72
55418;BME280;41287;47.554;7.844;2023-05-09T03:06:59;98176.63;;;19.09;58.78
55418;BME280;41287;47.554;7.844;2023-05-09T03:09:24;98174.69;;;19.09;58.85
55418;BME280;41287;47.554;7.844;2023-05-09T03:11:50;98165.75;;;19.09;58.80
55418;BME280;41287;47.554;7.844;2023-05-09T03:14:15;98165.75;;;19.09;58.66
55418;BME280;41287;47.554;7.844;2023-05-09T03:16:41;98160.31;;;19.09;58.85
55418;BME280;41287;47.554;7.844;2023-05-09T03:19:06;98154.88;;;19.09;58.82
55418;BME280;41287;47.554;7.844;2023-05-09T03:21:31;98156.81;;;19.08;58.87
55418;BME280;41287;47.554;7.844;2023-05-09T03:23:57;98159.53;;;19.08;58.66
55418;BME280;41287;47.554;7.844;2023-05-09T03:26:22;98163.03;;;19.09;58.94
55418;BME280;41287;47.554;7.844;2023-05-09T03:28:48;98157.59;;;19.09;58.68
55418;BME280;41287;47.554;7.844;2023-05-09T03:31:14;98148.66;;;19.08;58.79
55418;BME280;41287;47.554;7.844;2023-05-09T03:33:39;98149.47;;;19.09;58.83
55418;BME280;41287;47.554;7.844;2023-05-09T03:36:05;98147.06;;;19.07;58.79
55418;BME280;41287;47.554;7.844;2023-05-09T03:38:30;98148.66;;;19.08;58.72
55418;BME280;41287;47.554;7.844;2023-05-09T03:40:57;98148.66;;;19.08;58.73
55418;BME280;41287;47.554;7.844;2023-05-09T03:43:24;98139.38;;;19.09;58.71
55418;BME280;41287;47.554;7.844;2023-05-09T03:45:50;98137.00;;;19.08;58.97
55418;BME280;41287;47.554;7.844;2023-05-09T03:48:15;98142.44;;;19.08;58.73
55418;BME280;41287;47.554;7.844;2023-05-09T03:50:41;98144.03;;;19.09;58.93
55418;BME280;41287;47.554;7.844;2023-05-09T03:53:08;98140.50;;;19.08;58.81
55418;BME280;41287;47.554;7.844;2023-05-09T03:55:34;98151.38;;;19.08;58.86
55418;BME280;41287;47.554;7.844;2023-05-09T03:57:59;98145.94;;;19.08;58.90
55418;BME280;41287;47.554;7.844;2023-05-09T04:00:24;98154.88;;;19.09;58.68
55418;BME280;41287;47.554;7.844;2023-05-09T04:02:53;98148.66;;;19.08;58.86
55418;BME280;41287;47.554;7.844;2023-05-09T04:05:18;98149.47;;;19.09;58.92
55418;BME280;41287;47.554;7.844;2023-05-09T04:07:44;98149.13;;;19.10;58.90
55418;BME280;41287;47.554;7.844;2023-05-09T04:10:10;98147.66;;;19.13;58.85
55418;BME280;41287;47.554;7.844;2023-05-09T04:12:35;98145.88;;;19.17;59.17
55418;BME280;41287;47.554;7.844;2023-05-09T04:15:01;98152.66;;;19.23;59.51
55418;BME280;41287;47.554;7.844;2023-05-09T04:17:26;98151.66;;;19.27;60.19
55418;BME280;41287;47.554;7.844;2023-05-09T04:19:53;98157.22;;;19.31;60.92
55418;BME280;41287;47.554;7.844;2023-05-09T04:22:18;98146.78;;;19.33;61.74
55418;BME280;41287;47.554;7.844;2023-05-09T04:24:43;98145.34;;;19.36;62.68
55418;BME280;41287;47.554;7.844;2023-05-09T04:27:09;98146.56;;;19.38;63.34
55418;BME280;41287;47.554;7.844;2023-05-09T04:29:35;98152.94;;;19.42;64.42
55418;BME280;41287;47.554;7.844;2023-05-09T04:32:00;98143.31;;;19.45;65.49
55418;BME280;41287;47.554;7.844;2023-05-09T04:34:27;98144.25;;;19.49;66.37
55418;BME280;41287;47.554;7.844;2023-05-09T04:36:52;98145.84;;;19.50;66.22
55418;BME280;41287;47.554;7.844;2023-05-09T04:39:18;98144.25;;;19.49;64.79
55418;BME280;41287;47.554;7.844;2023-05-09T04:41:44;98145.72;;;19.46;63.99
55418;BME280;41287;47.554;7.844;2023-05-09T04:44:18;98139.03;;;19.44;63.17
55418;BME280;41287;47.554;7.844;2023-05-09T04:46:43;98144.78;;;19.42;62.71
55418;BME280;41287;47.554;7.844;2023-05-09T04:49:08;98131.53;;;19.41;62.39
55418;BME280;41287;47.554;7.844;2023-05-09T04:51:33;98126.41;;;19.39;62.24
55418;BME280;41287;47.554;7.844;2023-05-09T04:53:59;98135.69;;;19.38;62.10
55418;BME280;41287;47.554;7.844;2023-05-09T04:56:24;98131.44;;;19.37;62.08
55418;BME280;41287;47.554;7.844;2023-05-09T04:58:50;98134.13;;;19.37;61.99
55418;BME280;41287;47.554;7.844;2023-05-09T05:01:15;98129.84;;;19.36;61.95
55418;BME280;41287;47.554;7.844;2023-05-09T05:03:43;98140.69;;;19.36;61.64
55418;BME280;41287;47.554;7.844;2023-05-09T05:06:10;98131.28;;;19.33;61.77
55418;BME280;41287;47.554;7.844;2023-05-09T05:08:35;98133.22;;;19.33;61.74
55418;BME280;41287;47.554;7.844;2023-05-09T05:11:00;98135.13;;;19.32;61.72
55418;BME280;41287;47.554;7.844;2023-05-09T05:13:26;98143.28;;;19.32;61.79
55418;BME280;41287;47.554;7.844;2023-05-09T05:15:53;98130.81;;;19.31;61.55
55418;BME280;41287;47.554;7.844;2023-05-09T05:18:18;98130.06;;;19.31;61.48
55418;BME280;41287;47.554;7.844;2023-05-09T05:20:44;98132.78;;;19.31;61.50
55418;BME280;41287;47.554;7.844;2023-05-09T05:23:09;98131.19;;;19.30;61.44
55418;BME280;41287;47.554;7.844;2023-05-09T05:25:35;98129.25;;;19.30;61.51
55418;BME280;41287;47.554;7.844;2023-05-09T05:28:00;98122.25;;;19.29;61.34
55418;BME280;41287;47.554;7.844;2023-05-09T05:30:25;98113.28;;;19.29;61.11
55418;BME280;41287;47.554;7.844;2023-05-09T05:32:51;98118.72;;;19.29;61.23
55418;BME280;41287;47.554;7.844;2023-05-09T05:35:16;98116.81;;;19.29;61.22
55418;BME280;41287;47.554;7.844;2023-05-09T05:37:43;98120.66;;;19.28;61.28
55418;BME280;41287;47.554;7.844;2023-05-09T05:40:09;98128.78;;;19.28;61.16
55418;BME280;41287;47.554;7.844;2023-05-09T05:42:35;98123.69;;;19.27;61.19
55418;BME280;41287;47.554;7.844;2023-05-09T05:45:02;98120.97;;;19.27;61.09
55418;BME280;41287;47.554;7.844;2023-05-09T05:47:34;98113.94;;;19.26;61.03
55418;BME280;41287;47.554;7.844;2023-05-09T05:50:00;98114.75;;;19.26;61.09
55418;BME280;41287;47.554;7.844;2023-05-09T05:52:30;98116.66;;;19.26;61.01
55418;BME280;41287;47.554;7.844;2023-05-09T05:54:57;98114.75;;;19.26;61.06
55418;BME280;41287;47.554;7.844;2023-05-09T05:57:22;98115.88;;;19.25;60.96
55418;BME280;41287;47.554;7.844;2023-05-09T05:59:48;98115.06;;;19.25;60.94
55418;BME280;41287;47.554;7.844;2023-05-09T06:02:15;98112.34;;;19.25;60.96
55418;BME280;41287;47.554;7.844;2023-05-09T06:04:41;98111.22;;;19.26;60.96
55418;BME280;41287;47.554;7.844;2023-05-09T06:07:09;98109.63;;;19.25;60.92
55418;BME280;41287;47.554;7.844;2023-05-09T06:09:35;98105.38;;;19.24;60.63
55418;BME280;41287;47.554;7.844;2023-05-09T06:12:00;98097.97;;;19.24;60.80
55418;BME280;41287;47.554;7.844;2023-05-09T06:14:25;98108.84;;;19.24;60.89
55418;BME280;41287;47.554;7.844;2023-05-09T06:16:52;98103.41;;;19.24;60.73
55418;BME280;41287;47.554;7.844;2023-05-09T06:19:17;98098.78;;;19.25;60.79
55418;BME280;41287;47.554;7.844;2023-05-09T06:21:43;98093.72;;;19.23;60.84
55418;BME280;41287;47.554;7.844;2023-05-09T06:24:08;98085.56;;;19.23;60.73
55418;BME280;41287;47.554;7.844;2023-05-09T06:26:34;98087.47;;;19.23;60.66
55418;BME280;41287;47.554;7.844;2023-05-09T06:29:01;98084.75;;;19.23;60.71
55418;BME280;41287;47.554;7.844;2023-05-09T06:31:30;98078.84;;;19.21;60.68
55418;BME280;41287;47.554;7.844;2023-05-09T06:33:55;98075.03;;;19.22;60.74
55418;BME280;41287;47.554;7.844;2023-05-09T06:36:21;98076.94;;;19.21;60.71
55418;BME280;41287;47.554;7.844;2023-05-09T06:38:46;98065.28;;;19.21;60.73
55418;BME280;41287;47.554;7.844;2023-05-09T06:41:13;98060.63;;;19.21;60.66
55418;BME280;41287;47.554;7.844;2023-05-09T06:43:39;98059.84;;;19.21;60.60
55418;BME280;41287;47.554;7.844;2023-05-09T06:46:04;98066.06;;;19.21;60.71
55418;BME280;41287;47.554;7.844;2023-05-09T06:48:29;98066.06;;;19.21;60.77
55418;BME280;41287;47.554;7.844;2023-05-09T06:50:55;98052.50;;;19.21;60.41
55418;BME280;41287;47.554;7.844;2023-05-09T06:53:22;98048.19;;;19.20;60.59
55418;BME280;41287;47.554;7.844;2023-05-09T06:55:49;98045.47;;;19.20;60.54
55418;BME280;41287;47.554;7.844;2023-05-09T06:58:15;98047.06;;;19.21;60.47
55418;BME280;41287;47.554;7.844;2023-05-09T07:00:40;98046.25;;;19.21;60.40
55418;BME280;41287;47.554;7.844;2023-05-09T07:03:05;98040.03;;;19.20;60.60
55418;BME280;41287;47.554;7.844;2023-05-09T07:05:34;98044.66;;;19.20;60.54
55418;BME280;41287;47.554;7.844;2023-05-09T07:08:00;98038.44;;;19.19;60.60
55418;BME280;41287;47.554;7.844;2023-05-09T07:10:25;98030.28;;;19.19;60.53
55418;BME280;41287;47.554;7.844;2023-05-09T07:12:50;98027.59;;;19.19;60.56
55418;BME280;41287;47.554;7.844;2023-05-09T07:15:16;98019.75;;;19.18;60.57
55418;BME280;41287;47.554;7.844;2023-05-09T07:17:41;98015.59;;;19.20;60.40
55418;BME280;41287;47.554;7.844;2023-05-09T07:20:07;98018.63;;;19.19;60.54
55418;BME280;41287;47.554;7.844;2023-05-09T07:22:32;98011.63;;;19.18;60.30
55418;BME280;41287;47.554;7.844;2023-05-09T07:24:58;98011.63;;;19.18;60.50
55418;BME280;41287;47.554;7.844;2023-05-09T07:27:23;98011.63;;;19.18;60.55
55418;BME280;41287;47.554;7.844;2023-05-09T07:29:50;98012.41;;;19.18;60.49
55418;BME280;41287;47.554;7.844;2023-05-09T07:32:19;98010.84;;;19.17;60.40
55418;BME280;41287;47.554;7.844;2023-05-09T07:34:44;98006.19;;;19.18;60.47
55418;BME280;41287;47.554;7.844;2023-05-09T07:37:10;97998.41;;;19.16;60.55
55418;BME280;41287;47.554;7.844;2023-05-09T07:39:35;98000.00;;;19.17;60.35
55418;BME280;41287;47.554;7.844;2023-05-09T07:42:02;98000.00;;;19.17;60.49
55418;BME280;41287;47.554;7.844;2023-05-09T07:44:28;97993.75;;;19.17;60.55
55418;BME280;41287;47.554;7.844;2023-05-09T07:46:53;97985.59;;;19.17;60.42
55418;BME280;41287;47.554;7.844;2023-05-09T07:49:20;97982.09;;;19.16;60.37
55418;BME280;41287;47.554;7.844;2023-05-09T07:51:45;97982.09;;;19.16;60.38
55418;BME280;41287;47.554;7.844;2023-05-09T07:54:12;97980.19;;;19.17;60.42
55418;BME280;41287;47.554;7.844;2023-05-09T07:56:39;97965.00;;;19.16;60.49
55418;BME280;41287;47.554;7.844;2023-05-09T07:59:04;97968.53;;;19.16;60.44
55418;BME280;41287;47.554;7.844;2023-05-09T08:01:30;97960.72;;;19.15;60.28
55418;BME280;41287;47.554;7.844;2023-05-09T08:03:55;97958.78;;;19.15;60.47
55418;BME280;41287;47.554;7.844;2023-05-09T08:06:24;97963.09;;;19.16;60.29
55418;BME280;41287;47.554;7.844;2023-05-09T08:08:50;97951.75;;;19.14;60.45
55418;BME280;41287;47.554;7.844;2023-05-09T08:11:16;97947.13;;;19.15;60.58
55418;BME280;41287;47.554;7.844;2023-05-09T08:13:41;97939.78;;;19.15;60.37
55418;BME280;41287;47.554;7.844;2023-05-09T08:16:06;97954.16;;;19.16;60.37
55418;BME280;41287;47.554;7.844;2023-05-09T08:18:32;97938.19;;;19.14;60.43
55418;BME280;41287;47.554;7.844;2023-05-09T08:20:57;97941.69;;;19.15;60.27
55418;BME280;41287;47.554;7.844;2023-05-09T08:23:24;97930.81;;;19.15;60.41
55418;BME280;41287;47.554;7.844;2023-05-09T08:25:53;97931.16;;;19.13;60.29
55418;BME280;41287;47.554;7.844;2023-05-09T08:28:19;97927.31;;;19.14;60.29
55418;BME280;41287;47.554;7.844;2023-05-09T08:30:46;97919.16;;;19.14;60.32
55418;BME280;41287;47.554;7.844;2023-05-09T08:33:11;97915.66;;;19.14;60.39
55418;BME280;41287;47.554;7.844;2023-05-09T08:35:37;97912.16;;;19.13;60.25
55418;BME280;41287;47.554;7.844;2023-05-09T08:38:02;97910.22;;;19.14;60.45
55418;BME280;41287;47.554;7.844;2023-05-09T08:40:28;97904.00;;;19.13;60.44
55418;BME280;41287;47.554;7.844;2023-05-09T08:42:53;97898.56;;;19.13;60.31
55418;BME280;41287;47.554;7.844;2023-05-09T08:45:25;97901.28;;;19.13;60.37
55418;BME280;41287;47.554;7.844;2023-05-09T08:47:53;97895.06;;;19.13;60.32
55418;BME280;41287;47.554;7.844;2023-05-09T08:50:20;97890.41;;;19.13;60.28
55418;BME280;41287;47.554;7.844;2023-05-09T08:52:45;97889.63;;;19.13;60.25
55418;BME280;41287;47.554;7.844;2023-05-09T08:55:11;97890.41;;;19.13;60.22
55418;BME280;41287;47.554;7.844;2023-05-09T08:57:37;97872.53;;;19.12;60.30
55418;BME280;41287;47.554;7.844;2023-05-09T09:00:03;97877.97;;;19.12;60.23
55418;BME280;41287;47.554;7.844;2023-05-09T09:02:35;97883.41;;;19.12;60.17
55418;BME280;41287;47.554;7.844;2023-05-09T09:05:01;97874.13;;;19.13;60.26
55418;BME280;41287;47.554;7.844;2023-05-09T09:07:27;97867.09;;;19.12;60.26
55418;BME280;41287;47.554;7.844;2023-05-09T09:09:53;97874.91;;;19.14;60.30
55418;BME280;41287;47.554;7.844;2023-05-09T09:12:21;97867.09;;;19.12;60.40
55418;BME280;41287;47.554;7.844;2023-05-09T09:14:52;97861.69;;;19.12;60.34
55418;BME280;41287;47.554;7.844;2023-05-09T09:17:19;97855.44;;;19.12;60.20
55418;BME280;41287;47.554;7.844;2023-05-09T09:19:48;97850.47;;;19.14;60.18
55418;BME280;41287;47.554;7.844;2023-05-09T09:22:18;97845.38;;;19.12;60.34
55418;BME280;41287;47.554;7.844;2023-05-09T09:24:43;97847.31;;;19.12;60.26
55418;BME280;41287;47.554;7.844;2023-05-09T09:27:08;97843.00;;;19.11;60.32
55418;BME280;41287;47.554;7.844;2023-05-09T09:29:36;97846.50;;;19.11;60.19
55418;BME280;41287;47.554;7.844;2023-05-09T09:32:03;97839.16;;;19.12;60.25
55418;BME280;41287;47.554;7.844;2023-05-09T09:34:29;97847.31;;;19.12;60.26
55418;BME280;41287;47.554;7.844;2023-05-09T09:36:54;97839.16;;;19.12;60.26
55418;BME280;41287;47.554;7.844;2023-05-09T09:39:20;97839.16;;;19.12;60.17
55418;BME280;41287;47.554;7.844;2023-05-09T09:41:46;97824.78;;;19.11;60.28
55418;BME280;41287;47.554;7.844;2023-05-09T09:44:17;97820.50;;;19.10;60.31
55418;BME280;41287;47.554;7.844;2023-05-09T09:46:53;97827.88;;;19.10;60.33
55418;BME280;41287;47.554;7.844;2023-05-09T09:49:24;97822.06;;;19.11;60.13
55418;BME280;41287;47.554;7.844;2023-05-09T09:51:51;97807.69;;;19.11;60.17
55418;BME280;41287;47.554;7.844;2023-05-09T09:54:17;97812.38;;;19.10;60.23
55418;BME280;41287;47.554;7.844;2023-05-09T09:56:44;97810.41;;;19.11;60.26
55418;BME280;41287;47.554;7.844;2023-05-09T09:59:17;97800.34;;;19.11;60.12
55418;BME280;41287;47.554;7.844;2023-05-09T10:04:29;97791.41;;;19.11;60.13
55418;BME280;41287;47.554;7.844;2023-05-09T10:06:56;97794.13;;;19.11;60.24
55418;BME280;41287;47.554;7.844;2023-05-09T10:09:23;97785.97;;;19.11;60.25
55418;BME280;41287;47.554;7.844;2023-05-09T10:11:51;97777.81;;;19.11;60.24
55418;BME280;41287;47.554;7.844;2023-05-09T10:14:18;97776.28;;;19.10;60.29
55418;BME280;41287;47.554;7.844;2023-05-09T10:16:47;97765.41;;;19.10;60.21
55418;BME280;41287;47.554;7.844;2023-05-09T10:19:16;97763.47;;;19.10;60.17
55418;BME280;41287;47.554;7.844;2023-05-09T10:21:42;97758.06;;;19.10;60.17
55418;BME280;41287;47.554;7.844;2023-05-09T10:24:07;97757.25;;;19.10;60.15
55418;BME280;41287;47.554;7.844;2023-05-09T10:26:36;97748.31;;;19.09;60.29
55418;BME280;41287;47.554;7.844;2023-05-09T10:29:07;97751.81;;;19.10;60.38
55418;BME280;41287;47.554;7.844;2023-05-09T10:31:35;97753.75;;;19.09;60.23
55418;BME280;41287;47.554;7.844;2023-05-09T10:34:04;97742.88;;;19.09;60.18
55418;BME280;41287;47.554;7.844;2023-05-09T10:36:33;97732.03;;;19.09;60.17
55418;BME280;41287;47.554;7.844;2023-05-09T10:38:58;97732.81;;;19.10;60.22
55418;BME280;41287;47.554;7.844;2023-05-09T10:41:27;97724.66;;;19.10;60.26
55418;BME280;41287;47.554;7.844;2023-05-09T10:43:55;97717.66;;;19.09;60.25
55418;BME280;41287;47.554;7.844;2023-05-09T10:46:22;97721.16;;;19.09;60.13
55418;BME280;41287;47.554;7.844;2023-05-09T10:48:47;97716.53;;;19.10;60.10
55418;BME280;41287;47.554;7.844;2023-05-09T10:51:13;97710.28;;;19.09;60.29
55418;BME280;41287;47.554;7.844;2023-05-09T10:53:47;97710.63;;;19.08;60.18
55418;BME280;41287;47.554;7.844;2023-05-09T10:58:47;97698.66;;;19.09;60.28
55418;BME280;41287;47.554;7.844;2023-05-09T11:01:13;97691.28;;;19.09;60.21
55418;BME280;41287;47.554;7.844;2023-05-09T11:03:55;97687.31;;;19.07;60.27
55418;BME280;41287;47.554;7.844;2023-05-09T11:09:41;97673.28;;;19.05;60.24
55418;BME280;41287;47.554;7.844;2023-05-09T11:12:08;97669.56;;;19.09;60.07
55418;BME280;41287;47.554;7.844;2023-05-09T11:17:02;97664.47;;;19.08;60.12
55418;BME280;41287;47.554;7.844;2023-05-09T11:19:56;97657.00;;;19.05;60.32
55418;BME280;41287;47.554;7.844;2023-05-09T11:22:25;97646.59;;;19.07;60.10
55418;BME280;41287;47.554;7.844;2023-05-09T11:27:26;97645.47;;;19.08;60.11
55418;BME280;41287;47.554;7.844;2023-05-09T11:29:57;97639.25;;;19.07;60.27
55418;BME280;41287;47.554;7.844;2023-05-09T11:32:33;97636.88;;;19.06;60.28
55418;BME280;41287;47.554;7.844;2023-05-09T11:35:15;97634.50;;;19.04;60.26
55418;BME280;41287;47.554;7.844;2023-05-09T11:37:51;97625.22;;;19.05;60.20
55418;BME280;41287;47.554;7.844;2023-05-09T11:40:20;97624.88;;;19.07;60.20
55418;BME280;41287;47.554;7.844;2023-05-09T11:42:48;97612.44;;;19.06;60.20
55418;BME280;41287;47.554;7.844;2023-05-09T11:45:14;97608.59;;;19.07;60.23
55418;BME280;41287;47.554;7.844;2023-05-09T11:47:40;97604.28;;;19.06;60.16
55418;BME280;41287;47.554;7.844;2023-05-09T11:50:10;97607.78;;;19.06;60.16
55418;BME280;41287;47.554;7.844;2023-05-09T11:52:36;97597.72;;;19.07;60.13
55418;BME280;41287;47.554;7.844;2023-05-09T11:55:16;97600.78;;;19.05;60.18
55418;BME280;41287;47.554;7.844;2023-05-09T11:57:50;97584.13;;;19.07;60.07
55418;BME280;41287;47.554;7.844;2023-05-09T12:00:22;97585.28;;;19.06;60.16
55418;BME280;41287;47.554;7.844;2023-05-09T12:02:48;97584.13;;;19.07;60.14
55418;BME280;41287;47.554;7.844;2023-05-09T12:05:16;97580.63;;;19.06;60.10
55418;BME280;41287;47.554;7.844;2023-05-09T12:07:43;97580.63;;;19.06;60.13
55418;BME280;41287;47.554;7.844;2023-05-09T12:10:10;97575.19;;;19.06;60.21
55418;BME280;41287;47.554;7.844;2023-05-09T12:12:44;97574.41;;;19.06;60.23
55418;BME280;41287;47.554;7.844;2023-05-09T12:15:10;97568.97;;;19.06;60.35
55418;BME280;41287;47.554;7.844;2023-05-09T12:17:37;97567.06;;;19.06;60.25
55418;BME280;41287;47.554;7.844;2023-05-09T12:20:03;97557.00;;;19.07;60.30
55418;BME280;41287;47.554;7.844;2023-05-09T12:22:29;97548.06;;;19.06;60.21
55418;BME280;41287;47.554;7.844;2023-05-09T12:24:56;97553.47;;;19.06;60.25
55418;BME280;41287;47.554;7.844;2023-05-09T12:27:22;97551.22;;;19.08;60.25
55418;BME280;41287;47.554;7.844;2023-05-09T12:29:48;97543.75;;;19.05;60.17
55418;BME280;41287;47.554;7.844;2023-05-09T12:32:16;97541.81;;;19.06;60.09
55418;BME280;41287;47.554;7.844;2023-05-09T12:34:42;97530.97;;;19.06;60.25
55418;BME280;41287;47.554;7.844;2023-05-09T12:37:18;97533.25;;;19.04;60.15
55418;BME280;41287;47.554;7.844;2023-05-09T12:39:59;97534.03;;;19.04;60.23
55418;BME280;41287;47.554;7.844;2023-05-09T12:42:27;97532.53;;;19.07;60.06
55418;BME280;41287;47.554;7.844;2023-05-09T12:44:54;97534.47;;;19.06;60.10
55418;BME280;41287;47.554;7.844;2023-05-09T12:47:19;97527.47;;;19.05;60.16
55418;BME280;41287;47.554;7.844;2023-05-09T12:49:48;97525.53;;;19.06;60.17
55418;BME280;41287;47.554;7.844;2023-05-09T12:52:18;97527.47;;;19.05;60.11
55418;BME280;41287;47.554;7.844;2023-05-09T12:54:45;97521.69;;;19.07;60.21
55418;BME280;41287;47.554;7.844;2023-05-09T12:57:20;97519.69;;;19.04;60.22
55418;BME280;41287;47.554;7.844;2023-05-09T12:59:46;97516.59;;;19.05;60.01
55418;BME280;41287;47.554;7.844;2023-05-09T13:02:12;97520.09;;;19.06;60.15
55418;BME280;41287;47.554;7.844;2023-05-09T13:04:37;97503.81;;;19.06;60.25
55418;BME280;41287;47.554;7.844;2023-05-09T13:07:07;97505.75;;;19.05;60.26
55418;BME280;41287;47.554;7.844;2023-05-09T13:09:34;97501.09;;;19.06;60.44
55418;BME280;41287;47.554;7.844;2023-05-09T13:12:01;97499.19;;;19.06;60.12
55418;BME280;41287;47.554;7.844;2023-05-09T13:14:28;97496.00;;;19.04;60.22
55418;BME280;41287;47.554;7.844;2023-05-09T13:16:55;97487.53;;;19.06;60.29
55418;BME280;41287;47.554;7.844;2023-05-09T13:19:22;97494.09;;;19.05;60.23